Аэропорт: Игнатьево. Благовещенск

ICAO: UHBB

METAR:
2022-06-26 10:30:00
UHBB 261030Z 16003MPS 9999 FEW033CB 25/17 Q1003 R36/090060 NOSIG RMK QFE735/0980
METAR:
2022-06-26 07:55:00
TAF UHBB 260755Z 2609/2709 06003G08MPS 9999 SCT030CB BECMG 2614/2615 3100 BR SCT011 TEMPO 2617/2623 0300 FG VV003 FM262300 16003G08MPS 9999 SCT030CB TEMPO 2701/2709 3100 -TSRA SCT011 BKN020CB